Aviation Digital Data Service (ADDS)

Output produced by METARs form (1041 UTC 03 August 2015)
found at http://aviationweather.gov/adds/metars/
 
KJST 030529Z 0306/0406 23010KT P6SM SCT250 
     FM031500 24010G20KT P6SM SCT050 
     FM031900 24010G20KT P6SM -SHRA VCTS BKN040CB